createdAt,value
2018-11-03T00:01:25.810Z,7.73
2018-11-03T00:03:53.362Z,8.53
2018-11-03T00:06:20.915Z,8.23
2018-11-03T00:08:48.801Z,7.77
2018-11-03T00:11:16.224Z,8.10
2018-11-03T00:13:43.115Z,8.00
2018-11-03T00:16:10.055Z,8.20
2018-11-03T00:18:36.777Z,7.33
2018-11-03T00:21:04.244Z,7.43
2018-11-03T00:23:30.933Z,7.47
2018-11-03T00:25:57.672Z,6.80
2018-11-03T00:28:24.340Z,7.20
2018-11-03T00:30:51.769Z,7.37
2018-11-03T00:33:18.747Z,7.13
2018-11-03T00:35:46.178Z,6.80
2018-11-03T00:38:12.919Z,6.77
2018-11-03T00:40:39.747Z,6.40
2018-11-03T00:43:06.358Z,6.77
2018-11-03T00:45:33.079Z,6.73
2018-11-03T00:48:00.502Z,6.50
2018-11-03T00:50:27.240Z,7.10
2018-11-03T00:52:53.968Z,6.00
2018-11-03T00:55:20.644Z,6.47
2018-11-03T00:57:48.662Z,6.53
2018-11-03T01:00:15.447Z,6.17
2018-11-03T01:02:43.033Z,5.87
2018-11-03T01:05:10.523Z,5.50
2018-11-03T01:07:37.310Z,6.07
2018-11-03T01:10:04.250Z,5.90
2018-11-03T01:12:30.931Z,5.93
2018-11-03T01:14:58.381Z,5.77
2018-11-03T01:17:26.431Z,5.80
2018-11-03T01:19:53.501Z,5.70
2018-11-03T01:22:20.493Z,5.40
2018-11-03T01:24:47.724Z,5.40
2018-11-03T01:27:15.154Z,5.40
2018-11-03T01:29:42.352Z,5.00
2018-11-03T01:32:17.794Z,5.20
2018-11-03T01:34:45.072Z,5.30
2018-11-03T01:37:13.236Z,4.93
2018-11-03T01:39:43.496Z,5.17
2018-11-03T01:42:10.334Z,5.23
2018-11-03T01:44:37.122Z,5.63
2018-11-03T01:47:05.069Z,5.23
2018-11-03T01:49:32.835Z,5.43
2018-11-03T01:52:00.409Z,5.10
2018-11-03T01:54:28.581Z,5.00
2018-11-03T01:56:56.228Z,5.33
2018-11-03T01:59:24.761Z,5.47
2018-11-03T02:01:53.047Z,5.60
2018-11-03T02:04:19.758Z,5.50
2018-11-03T02:06:47.240Z,5.10
2018-11-03T02:09:15.294Z,4.90
2018-11-03T02:11:42.102Z,5.33
2018-11-03T02:14:10.176Z,5.50
2018-11-03T02:16:37.124Z,4.83
2018-11-03T02:19:05.270Z,5.17
2018-11-03T02:21:32.073Z,4.80
2018-11-03T02:23:58.750Z,4.90
2018-11-03T02:26:25.395Z,4.77
2018-11-03T02:28:54.277Z,4.97
2018-11-03T02:31:21.029Z,4.30
2018-11-03T02:33:47.736Z,4.73
2018-11-03T02:36:14.584Z,4.90
2018-11-03T02:38:42.588Z,4.47
2018-11-03T02:41:09.432Z,4.00
2018-11-03T02:43:36.948Z,3.90
2018-11-03T02:46:05.236Z,4.00
2018-11-03T02:48:32.358Z,3.50
2018-11-03T02:50:59.031Z,3.80
2018-11-03T02:53:26.478Z,4.00
2018-11-03T02:55:53.992Z,3.57
2018-11-03T02:58:20.671Z,3.50
2018-11-03T03:00:48.071Z,3.40
2018-11-03T03:03:14.993Z,3.37
2018-11-03T03:05:41.720Z,2.97
2018-11-03T03:08:09.140Z,3.30
2018-11-03T03:10:35.844Z,3.00
2018-11-03T03:13:02.502Z,2.93
2018-11-03T03:15:29.180Z,2.90
2018-11-03T03:17:55.872Z,2.57
2018-11-03T03:20:22.525Z,2.40
2018-11-03T03:22:49.323Z,2.13
2018-11-03T03:25:16.723Z,2.20
2018-11-03T03:27:43.371Z,1.90
2018-11-03T03:30:10.278Z,1.80
2018-11-03T03:32:36.998Z,1.83
2018-11-03T03:35:03.723Z,1.63
2018-11-03T03:37:31.263Z,1.60
2018-11-03T03:39:57.944Z,1.70
2018-11-03T03:42:40.372Z,2.10
2018-11-03T03:45:07.090Z,1.57
2018-11-03T03:47:33.759Z,1.77
2018-11-03T03:50:00.613Z,1.70
2018-11-03T03:52:27.258Z,1.47
2018-11-03T03:54:53.930Z,1.20
2018-11-03T03:57:20.847Z,1.33
2018-11-03T03:59:47.523Z,1.20
2018-11-03T04:04:46.472Z,1.03
2018-11-03T04:07:13.190Z,1.37
2018-11-03T04:09:39.873Z,1.20
2018-11-03T04:12:06.612Z,1.50
2018-11-03T04:14:33.282Z,1.00
2018-11-03T04:17:00.653Z,1.10
2018-11-03T04:19:27.478Z,1.10
2018-11-03T04:21:54.168Z,1.30
2018-11-03T04:24:20.833Z,1.10
2018-11-03T04:26:47.536Z,1.20
2018-11-03T04:29:14.330Z,1.30
2018-11-03T04:31:41.202Z,1.60
2018-11-03T04:34:07.949Z,1.10
2018-11-03T04:36:34.671Z,1.50
2018-11-03T04:39:01.868Z,1.30
2018-11-03T04:41:28.693Z,1.17
2018-11-03T04:43:55.758Z,1.60
2018-11-03T04:46:23.706Z,1.20
2018-11-03T04:48:50.766Z,1.20
2018-11-03T04:51:17.891Z,1.30
2018-11-03T04:53:45.542Z,1.10
2018-11-03T04:56:12.964Z,1.27
2018-11-03T04:58:39.656Z,1.43
2018-11-03T05:01:06.405Z,1.40
2018-11-03T05:03:33.121Z,1.00
2018-11-03T05:06:00.578Z,1.20
2018-11-03T05:08:27.252Z,1.30
2018-11-03T05:10:53.907Z,1.30
2018-11-03T05:13:20.618Z,1.30
2018-11-03T05:15:47.296Z,1.20
2018-11-03T05:18:14.741Z,1.30
2018-11-03T05:20:41.462Z,1.07
2018-11-03T05:23:08.174Z,1.17
2018-11-03T05:25:34.831Z,1.10
2018-11-03T05:28:01.650Z,1.17
2018-11-03T05:30:29.036Z,1.03
2018-11-03T05:32:55.703Z,1.03
2018-11-03T05:35:22.420Z,1.20
2018-11-03T05:37:49.098Z,1.17
2018-11-03T05:40:16.702Z,1.10
2018-11-03T05:42:43.387Z,1.20
2018-11-03T05:45:10.145Z,1.00
2018-11-03T05:47:36.867Z,0.80
2018-11-03T05:50:03.583Z,1.23
2018-11-03T05:52:31.050Z,1.17
2018-11-03T05:54:57.875Z,1.27
2018-11-03T05:57:25.384Z,1.30
2018-11-03T05:59:52.807Z,0.73
2018-11-03T06:02:19.617Z,1.20
2018-11-03T06:04:46.324Z,1.10
2018-11-03T06:07:13.806Z,1.00
2018-11-03T06:09:41.304Z,1.23
2018-11-03T06:12:08.021Z,1.13
2018-11-03T06:14:34.695Z,0.90
2018-11-03T06:17:01.496Z,0.90
2018-11-03T06:19:28.190Z,1.00
2018-11-03T06:21:54.861Z,1.10
2018-11-03T06:24:21.660Z,1.10
2018-11-03T06:26:48.312Z,0.93
2018-11-03T06:29:15.719Z,1.00
2018-11-03T06:31:42.513Z,1.20
2018-11-03T06:34:09.953Z,1.17
2018-11-03T06:36:36.610Z,0.90
2018-11-03T06:39:03.637Z,1.10
2018-11-03T06:41:30.255Z,1.07
2018-11-03T06:43:56.922Z,0.90
2018-11-03T06:46:23.843Z,0.90
2018-11-03T06:48:50.480Z,1.00
2018-11-03T06:51:17.138Z,0.90
2018-11-03T06:53:44.621Z,1.00
2018-11-03T06:56:12.088Z,1.03
2018-11-03T06:58:39.606Z,0.90
2018-11-03T07:01:06.298Z,1.10
2018-11-03T07:03:32.955Z,1.13
2018-11-03T07:05:59.755Z,0.97
2018-11-03T07:08:26.491Z,1.10
2018-11-03T07:10:53.911Z,0.90
2018-11-03T07:13:20.691Z,1.20
2018-11-03T07:15:47.296Z,1.00
2018-11-03T07:18:13.981Z,0.90
2018-11-03T07:20:40.861Z,0.90
2018-11-03T07:23:07.525Z,1.03
2018-11-03T07:25:34.195Z,0.90
2018-11-03T07:28:01.620Z,0.97
2018-11-03T07:30:28.274Z,1.00
2018-11-03T07:32:54.992Z,0.73
2018-11-03T07:35:21.674Z,1.00
2018-11-03T07:37:49.052Z,0.73
2018-11-03T07:40:15.844Z,0.90
2018-11-03T07:42:43.434Z,0.73
2018-11-03T07:45:10.152Z,0.90
2018-11-03T07:47:36.869Z,0.73
2018-11-03T07:50:04.525Z,0.80
2018-11-03T07:52:31.312Z,0.70
2018-11-03T07:54:58.122Z,0.83
2018-11-03T07:57:24.789Z,0.93
2018-11-03T07:59:52.235Z,0.83
2018-11-03T08:02:19.657Z,1.00
2018-11-03T08:04:47.109Z,1.73
2018-11-03T08:07:13.764Z,1.10
2018-11-03T08:09:40.437Z,0.97
2018-11-03T08:12:07.954Z,2.10
2018-11-03T08:14:34.709Z,1.40
2018-11-03T08:17:02.155Z,1.03
2018-11-03T08:19:28.975Z,1.30
2018-11-03T08:21:55.684Z,1.30
2018-11-03T08:24:23.105Z,0.90
2018-11-03T08:26:49.811Z,0.97
2018-11-03T08:29:16.496Z,1.10
2018-11-03T08:31:44.242Z,0.80
2018-11-03T08:34:10.855Z,1.10
2018-11-03T08:36:37.550Z,2.07
2018-11-03T08:39:05.159Z,1.20
2018-11-03T08:41:31.875Z,1.67
2018-11-03T08:43:58.531Z,0.80
2018-11-03T08:46:25.363Z,1.10
2018-11-03T08:48:52.255Z,1.00
2018-11-03T08:51:19.043Z,0.60
2018-11-03T08:53:45.893Z,3.03
2018-11-03T08:56:12.599Z,1.73
2018-11-03T08:58:39.301Z,1.40
2018-11-03T09:01:06.283Z,2.40
2018-11-03T09:03:33.734Z,0.93
2018-11-03T09:06:00.437Z,1.00
2018-11-03T09:08:27.274Z,1.20
2018-11-03T09:11:08.845Z,1.90
2018-11-03T09:13:35.601Z,1.37
2018-11-03T09:16:02.554Z,0.97
2018-11-03T09:18:30.015Z,1.30
2018-11-03T09:20:56.746Z,0.90
2018-11-03T09:23:23.424Z,0.80
2018-11-03T09:25:51.044Z,0.73
2018-11-03T09:28:17.722Z,1.00
2018-11-03T09:30:44.914Z,0.90
2018-11-03T09:33:11.914Z,1.10
2018-11-03T09:35:39.365Z,1.10
2018-11-03T09:38:06.109Z,1.10
2018-11-03T09:40:32.858Z,0.83
2018-11-03T09:42:59.571Z,0.70
2018-11-03T09:45:26.242Z,0.80
2018-11-03T09:47:54.576Z,0.67
2018-11-03T09:50:21.286Z,0.70
2018-11-03T09:52:47.961Z,0.60
2018-11-03T09:55:14.922Z,0.60
2018-11-03T09:57:41.635Z,0.73
2018-11-03T10:00:09.021Z,0.80
2018-11-03T10:02:35.894Z,0.60
2018-11-03T10:05:02.905Z,0.70
2018-11-03T10:07:29.635Z,0.53
2018-11-03T10:09:56.472Z,0.70
2018-11-03T10:12:23.860Z,0.70
2018-11-03T10:14:50.519Z,0.63
2018-11-03T10:17:17.980Z,0.77
2018-11-03T10:19:44.638Z,0.63
2018-11-03T10:22:11.482Z,0.77
2018-11-03T10:24:40.855Z,0.70
2018-11-03T10:27:09.220Z,0.70
2018-11-03T10:29:37.018Z,0.70
2018-11-03T10:32:04.841Z,0.90
2018-11-03T10:34:31.858Z,0.70
2018-11-03T10:36:58.628Z,0.77
2018-11-03T10:39:25.372Z,0.80
2018-11-03T10:41:52.808Z,0.60
2018-11-03T10:44:19.481Z,0.70
2018-11-03T10:46:46.439Z,0.60
2018-11-03T10:49:13.188Z,0.53
2018-11-03T10:51:39.891Z,0.63
2018-11-03T10:54:07.378Z,0.60
2018-11-03T10:56:34.046Z,0.60
2018-11-03T10:59:00.958Z,0.63
2018-11-03T11:01:45.335Z,0.50
2018-11-03T11:07:14.090Z,0.57
2018-11-03T11:09:40.880Z,0.50
2018-11-03T11:12:11.556Z,0.70
2018-11-03T11:14:38.220Z,0.60
2018-11-03T11:17:05.819Z,0.50
2018-11-03T11:19:33.232Z,0.80
2018-11-03T11:22:00.642Z,0.70
2018-11-03T11:24:27.581Z,0.57
2018-11-03T11:26:54.973Z,0.60
2018-11-03T11:29:21.663Z,0.60
2018-11-03T11:31:48.402Z,0.60
2018-11-03T11:34:15.106Z,0.50
2018-11-03T11:36:42.530Z,0.57
2018-11-03T11:39:09.257Z,0.57
2018-11-03T11:41:35.953Z,0.60
2018-11-03T11:44:03.372Z,0.57
2018-11-03T11:46:30.245Z,0.50
2018-11-03T11:48:56.904Z,0.57
2018-11-03T11:51:23.586Z,0.50
2018-11-03T11:53:50.348Z,0.80
2018-11-03T11:56:17.033Z,0.60
2018-11-03T11:58:43.726Z,0.50
2018-11-03T12:01:10.458Z,0.70
2018-11-03T12:03:37.145Z,0.40
2018-11-03T12:06:04.788Z,0.60
2018-11-03T12:08:31.433Z,0.60
2018-11-03T12:10:58.150Z,0.50
2018-11-03T12:13:24.972Z,0.40
2018-11-03T12:15:51.660Z,0.50
2018-11-03T12:18:18.323Z,0.70
2018-11-03T12:20:45.090Z,0.60
2018-11-03T12:23:11.761Z,0.60
2018-11-03T12:25:39.286Z,0.40
2018-11-03T12:28:06.050Z,0.50
2018-11-03T12:30:38.767Z,0.47
2018-11-03T12:33:05.456Z,0.43
2018-11-03T12:35:32.300Z,0.57
2018-11-03T12:37:59.718Z,0.50
2018-11-03T12:40:26.396Z,0.50
2018-11-03T12:42:53.270Z,0.50
2018-11-03T12:45:20.719Z,0.60
2018-11-03T12:47:47.362Z,0.70
2018-11-03T12:50:14.252Z,0.80
2018-11-03T12:52:40.956Z,0.70
2018-11-03T12:55:07.806Z,0.70
2018-11-03T12:57:34.475Z,0.70
2018-11-03T13:00:01.217Z,0.67
2018-11-03T13:02:28.764Z,0.70
2018-11-03T13:04:55.474Z,0.50
2018-11-03T13:07:22.150Z,0.60
2018-11-03T13:09:48.984Z,0.83
2018-11-03T13:12:16.309Z,0.60
2018-11-03T13:14:43.994Z,0.70
2018-11-03T13:17:10.979Z,0.60
2018-11-03T13:19:37.890Z,0.60
2018-11-03T13:22:04.793Z,0.50
2018-11-03T13:24:31.764Z,0.40
2018-11-03T13:26:58.513Z,0.40
2018-11-03T13:29:25.363Z,0.30
2018-11-03T13:31:52.236Z,0.50
2018-11-03T13:34:19.084Z,0.30
2018-11-03T13:36:45.769Z,0.30
2018-11-03T13:39:12.576Z,0.30
2018-11-03T13:41:39.478Z,0.33
2018-11-03T13:44:06.228Z,0.40
2018-11-03T13:46:32.970Z,0.40
2018-11-03T13:48:59.635Z,0.43
2018-11-03T13:51:26.294Z,0.50
2018-11-03T13:53:53.027Z,0.50
2018-11-03T13:56:19.691Z,0.50
2018-11-03T13:58:48.152Z,0.60
2018-11-03T14:01:15.035Z,0.60
2018-11-03T14:03:41.996Z,0.53
2018-11-03T14:06:08.720Z,0.60
2018-11-03T14:08:35.568Z,0.50
2018-11-03T14:11:02.302Z,0.63
2018-11-03T14:13:29.054Z,0.50
2018-11-03T14:15:55.852Z,0.60
2018-11-03T14:18:22.515Z,0.40
2018-11-03T14:20:49.305Z,0.53
2018-11-03T14:23:17.778Z,0.40
2018-11-03T14:25:44.421Z,0.60
2018-11-03T14:28:11.045Z,0.57
2018-11-03T14:30:37.855Z,0.60
2018-11-03T14:33:19.534Z,0.70
2018-11-03T14:35:46.239Z,0.60
2018-11-03T14:38:13.814Z,0.60
2018-11-03T14:40:40.468Z,0.60
2018-11-03T14:43:07.899Z,0.50
2018-11-03T14:45:34.717Z,0.50
2018-11-03T14:48:01.380Z,0.53
2018-11-03T14:50:28.066Z,0.53
2018-11-03T14:52:54.872Z,0.60
2018-11-03T14:55:21.530Z,0.60
2018-11-03T14:57:48.938Z,0.50
2018-11-03T15:00:15.755Z,0.60
2018-11-03T15:02:42.443Z,0.50
2018-11-03T15:05:09.870Z,0.57
2018-11-03T15:07:36.684Z,0.70
2018-11-03T15:10:03.396Z,0.60
2018-11-03T15:12:30.803Z,0.60
2018-11-03T15:14:57.654Z,0.50
2018-11-03T15:17:24.290Z,0.60
2018-11-03T15:19:50.986Z,0.50
2018-11-03T15:22:17.805Z,0.60
2018-11-03T15:24:45.231Z,0.70
2018-11-03T15:27:11.980Z,0.60
2018-11-03T15:29:38.800Z,0.50
2018-11-03T15:32:05.505Z,0.60
2018-11-03T15:34:32.217Z,0.73
2018-11-03T15:36:58.856Z,0.53
2018-11-03T15:39:25.574Z,0.60
2018-11-03T15:41:52.448Z,0.57
2018-11-03T15:44:19.112Z,0.57
2018-11-03T15:46:45.783Z,0.50
2018-11-03T15:49:12.571Z,0.50
2018-11-03T15:51:39.289Z,0.53
2018-11-03T15:54:06.455Z,0.60
2018-11-03T15:56:33.450Z,0.60
2018-11-03T15:59:00.111Z,0.80
2018-11-03T16:01:26.765Z,0.60
2018-11-03T16:03:53.569Z,1.03
2018-11-03T16:06:20.231Z,0.57
2018-11-03T16:08:46.896Z,0.87
2018-11-03T16:11:13.622Z,0.60
2018-11-03T16:13:40.301Z,0.50
2018-11-03T16:16:07.015Z,0.53
2018-11-03T16:18:33.731Z,0.70
2018-11-03T16:21:00.408Z,0.50
2018-11-03T16:23:27.844Z,0.50
2018-11-03T16:25:55.476Z,0.60
2018-11-03T16:28:22.196Z,0.80
2018-11-03T16:30:48.881Z,0.70
2018-11-03T16:33:15.582Z,0.60
2018-11-03T16:35:43.241Z,0.80
2018-11-03T16:38:09.870Z,0.60
2018-11-03T16:40:36.711Z,0.60
2018-11-03T16:43:03.471Z,0.60
2018-11-03T16:45:30.157Z,0.80
2018-11-03T16:47:57.600Z,0.80
2018-11-03T16:50:24.256Z,0.93
2018-11-03T16:52:51.076Z,0.83
2018-11-03T16:55:17.779Z,0.60
2018-11-03T16:57:44.471Z,0.70
2018-11-03T17:00:12.156Z,0.60
2018-11-03T17:02:38.857Z,0.80
2018-11-03T17:05:05.569Z,0.80
2018-11-03T17:07:32.285Z,0.60
2018-11-03T17:09:58.953Z,0.90
2018-11-03T17:12:25.669Z,0.77
2018-11-03T17:14:52.511Z,0.77
2018-11-03T17:17:19.199Z,0.67
2018-11-03T17:19:45.960Z,0.60
2018-11-03T17:22:14.296Z,0.80
2018-11-03T17:24:41.179Z,0.60
2018-11-03T17:27:08.686Z,0.50
2018-11-03T17:29:35.355Z,0.63
2018-11-03T17:32:02.169Z,0.40
2018-11-03T17:34:28.834Z,0.60
2018-11-03T17:36:55.634Z,0.40
2018-11-03T17:39:22.682Z,0.50
2018-11-03T17:41:49.387Z,0.63
2018-11-03T17:44:16.847Z,0.60
2018-11-03T17:46:44.441Z,0.67
2018-11-03T17:49:11.115Z,0.60
2018-11-03T17:51:37.815Z,0.40
2018-11-03T17:54:04.558Z,0.37
2018-11-03T17:56:31.191Z,0.50
2018-11-03T17:58:57.996Z,0.80
2018-11-03T18:01:25.658Z,0.50
2018-11-03T18:03:52.143Z,0.50
2018-11-03T18:06:19.059Z,0.70
2018-11-03T18:08:46.507Z,0.60
2018-11-03T18:11:13.969Z,0.67
2018-11-03T18:13:40.836Z,0.87
2018-11-03T18:16:07.477Z,0.67
2018-11-03T18:18:34.162Z,0.60
2018-11-03T18:21:00.984Z,0.77
2018-11-03T18:23:27.626Z,0.63
2018-11-03T18:25:54.343Z,0.90
2018-11-03T18:28:21.137Z,0.73
2018-11-03T18:30:48.545Z,0.70
2018-11-03T18:33:15.292Z,0.60
2018-11-03T18:35:42.069Z,0.80
2018-11-03T18:38:09.511Z,0.70
2018-11-03T18:40:36.155Z,0.60
2018-11-03T18:43:03.700Z,0.80
2018-11-03T18:45:30.369Z,0.70
2018-11-03T18:47:57.865Z,0.97
2018-11-03T18:50:24.814Z,0.73
2018-11-03T18:52:51.492Z,0.90
2018-11-03T18:55:19.012Z,1.50
2018-11-03T18:57:45.950Z,1.50
2018-11-03T19:00:12.693Z,1.53
2018-11-03T19:02:39.599Z,1.90
2018-11-03T19:05:06.376Z,1.60
2018-11-03T19:07:33.119Z,2.00
2018-11-03T19:09:59.914Z,1.90
2018-11-03T19:12:26.992Z,1.90
2018-11-03T19:14:53.724Z,1.60
2018-11-03T19:17:21.319Z,1.80
2018-11-03T19:19:48.049Z,2.00
2018-11-03T19:22:14.742Z,2.50
2018-11-03T19:24:41.534Z,1.90
2018-11-03T19:27:08.189Z,2.10
2018-11-03T19:29:34.899Z,2.13
2018-11-03T19:32:02.411Z,1.50
2018-11-03T19:34:29.845Z,1.57
2018-11-03T19:36:56.635Z,1.00
2018-11-03T19:39:24.070Z,0.93
2018-11-03T19:41:50.805Z,1.00
2018-11-03T19:44:17.589Z,1.20
2018-11-03T19:46:44.267Z,0.80
2018-11-03T19:49:10.932Z,1.10
2018-11-03T19:51:37.892Z,1.00
2018-11-03T19:54:04.574Z,0.90
2018-11-03T19:56:31.364Z,0.70
2018-11-03T19:58:59.089Z,1.00
2018-11-03T20:01:25.794Z,0.90
2018-11-03T20:03:52.795Z,0.80
2018-11-03T20:06:19.661Z,0.80
2018-11-03T20:08:47.134Z,0.73
2018-11-03T20:11:14.528Z,0.93
2018-11-03T20:13:41.356Z,0.60
2018-11-03T20:16:08.105Z,0.63
2018-11-03T20:18:34.779Z,0.70
2018-11-03T20:21:01.600Z,0.63
2018-11-03T20:23:28.318Z,0.90
2018-11-03T20:25:54.977Z,1.00
2018-11-03T20:28:21.810Z,1.07
2018-11-03T20:30:48.469Z,1.27
2018-11-03T20:33:15.134Z,1.07
2018-11-03T20:35:41.848Z,1.20
2018-11-03T20:38:08.548Z,0.80
2018-11-03T20:40:35.219Z,0.80
2018-11-03T20:43:02.041Z,0.90
2018-11-03T20:45:29.238Z,0.87
2018-11-03T20:47:56.030Z,1.23
2018-11-03T20:50:22.717Z,1.20
2018-11-03T20:52:49.356Z,1.07
2018-11-03T20:55:16.096Z,1.53
2018-11-03T20:57:42.889Z,1.40
2018-11-03T21:00:09.946Z,1.70
2018-11-03T21:02:37.428Z,1.53
2018-11-03T21:05:04.277Z,1.67
2018-11-03T21:07:31.023Z,1.70
2018-11-03T21:09:57.677Z,1.90
2018-11-03T21:12:24.487Z,1.43
2018-11-03T21:14:51.300Z,1.30
2018-11-03T21:17:18.039Z,1.50
2018-11-03T21:19:44.782Z,1.63
2018-11-03T21:22:11.479Z,1.67
2018-11-03T21:24:39.029Z,1.67
2018-11-03T21:27:05.698Z,1.43
2018-11-03T21:29:33.089Z,1.73
2018-11-03T21:32:00.298Z,1.60
2018-11-03T21:34:26.820Z,1.73
2018-11-03T21:36:53.460Z,2.20
2018-11-03T21:39:20.977Z,2.00
2018-11-03T21:41:47.624Z,2.00
2018-11-03T21:44:14.261Z,2.03
2018-11-03T21:46:41.069Z,1.80
2018-11-03T21:49:08.602Z,1.83
2018-11-03T21:51:35.290Z,1.83
2018-11-03T21:54:01.972Z,1.90
2018-11-03T21:56:28.653Z,1.60
2018-11-03T21:58:55.692Z,2.03
2018-11-03T22:01:23.083Z,1.93
2018-11-03T22:03:50.140Z,1.80
2018-11-03T22:06:17.045Z,1.53
2018-11-03T22:08:43.707Z,1.50
2018-11-03T22:11:11.031Z,1.70
2018-11-03T22:13:37.884Z,1.70
2018-11-03T22:16:04.586Z,1.30
2018-11-03T22:18:32.780Z,1.60
2018-11-03T22:21:00.543Z,1.30
2018-11-03T22:23:27.336Z,1.47
2018-11-03T22:25:54.741Z,1.30
2018-11-03T22:28:21.436Z,1.20
2018-11-03T22:30:48.123Z,1.33
2018-11-03T22:33:15.921Z,1.40
2018-11-03T22:35:43.629Z,1.20
2018-11-03T22:38:11.341Z,1.23
2018-11-03T22:40:38.950Z,1.30
2018-11-03T22:43:06.239Z,1.00
2018-11-03T22:45:33.275Z,1.17
2018-11-03T22:48:01.371Z,1.03
2018-11-03T22:50:28.253Z,1.37
2018-11-03T22:52:55.240Z,1.53
2018-11-03T22:55:21.891Z,1.20
2018-11-03T22:57:48.851Z,1.10
2018-11-03T23:00:15.772Z,1.30
2018-11-03T23:02:43.214Z,0.90
2018-11-03T23:05:11.234Z,1.27
2018-11-03T23:07:38.937Z,1.47
2018-11-03T23:10:06.456Z,1.53
2018-11-03T23:12:33.318Z,1.23
2018-11-03T23:15:00.983Z,1.10
2018-11-03T23:17:27.739Z,1.27
2018-11-03T23:19:56.036Z,1.27
2018-11-03T23:22:23.582Z,1.43
2018-11-03T23:24:50.398Z,1.43
2018-11-03T23:27:17.320Z,1.13
2018-11-03T23:29:45.329Z,1.27
2018-11-03T23:32:13.623Z,1.30
2018-11-03T23:34:40.532Z,1.30
2018-11-03T23:37:07.400Z,1.30
2018-11-03T23:39:36.683Z,1.50
2018-11-03T23:42:03.445Z,0.90
2018-11-03T23:44:32.042Z,1.00
2018-11-03T23:46:58.718Z,1.27
2018-11-03T23:49:26.900Z,1.30
2018-11-03T23:51:54.481Z,1.03
2018-11-03T23:54:22.023Z,1.10
2018-11-03T23:56:48.670Z,1.33
2018-11-03T23:59:15.493Z,1.20
